sensor_id;sensor_type;location;lat;lon;timestamp;pressure;altitude;pressure_sealevel;temperature;humidity
71105;BME280;58760;48.716;8.962;2022-12-10T00:01:46;95221.44;;;0.65;93.81
71105;BME280;58760;48.716;8.962;2022-12-10T00:04:12;95219.50;;;0.67;93.88
71105;BME280;58760;48.716;8.962;2022-12-10T00:06:39;95218.97;;;0.63;94.11
71105;BME280;58760;48.716;8.962;2022-12-10T00:09:06;95216.75;;;0.68;93.88
71105;BME280;58760;48.716;8.962;2022-12-10T00:11:32;95221.28;;;0.66;93.80
71105;BME280;58760;48.716;8.962;2022-12-10T00:13:58;95219.75;;;0.73;93.82
71105;BME280;58760;48.716;8.962;2022-12-10T00:16:25;95220.88;;;0.71;93.59
71105;BME280;58760;48.716;8.962;2022-12-10T00:18:51;95226.88;;;0.81;93.58
71105;BME280;58760;48.716;8.962;2022-12-10T00:21:19;95223.78;;;0.85;92.57
71105;BME280;58760;48.716;8.962;2022-12-10T00:23:45;95213.81;;;0.81;92.20
71105;BME280;58760;48.716;8.962;2022-12-10T00:26:15;95224.31;;;0.71;92.56
71105;BME280;58760;48.716;8.962;2022-12-10T00:28:42;95225.34;;;0.78;93.03
71105;BME280;58760;48.716;8.962;2022-12-10T00:31:13;95225.78;;;0.74;92.68
71105;BME280;58760;48.716;8.962;2022-12-10T00:33:39;95226.22;;;0.69;92.92
71105;BME280;58760;48.716;8.962;2022-12-10T00:36:29;95218.38;;;0.69;93.31
71105;BME280;58760;48.716;8.962;2022-12-10T00:38:55;95221.09;;;0.77;93.28
71105;BME280;58760;48.716;8.962;2022-12-10T00:41:21;95218.38;;;0.69;93.09
71105;BME280;58760;48.716;8.962;2022-12-10T00:43:47;95216.34;;;0.63;93.27
71105;BME280;58760;48.716;8.962;2022-12-10T00:46:14;95221.41;;;0.74;93.58
71105;BME280;58760;48.716;8.962;2022-12-10T00:48:40;95223.41;;;0.80;93.22
71105;BME280;58760;48.716;8.962;2022-12-10T00:51:14;95226.63;;;0.74;93.07
71105;BME280;58760;48.716;8.962;2022-12-10T00:53:41;95228.81;;;0.69;92.31
71105;BME280;58760;48.716;8.962;2022-12-10T00:56:08;95227.63;;;0.64;92.70
71105;BME280;58760;48.716;8.962;2022-12-10T00:58:35;95226.50;;;0.66;93.39
71105;BME280;58760;48.716;8.962;2022-12-10T01:03:49;95235.13;;;0.76;93.30
71105;BME280;58760;48.716;8.962;2022-12-10T01:08:48;95240.09;;;0.70;92.89
71105;BME280;58760;48.716;8.962;2022-12-10T01:11:15;95244.78;;;0.66;93.03
71105;BME280;58760;48.716;8.962;2022-12-10T01:13:42;95248.34;;;0.65;93.64
71105;BME280;58760;48.716;8.962;2022-12-10T01:16:10;95250.13;;;0.74;93.46
71105;BME280;58760;48.716;8.962;2022-12-10T01:18:36;95247.94;;;0.70;93.09
71105;BME280;58760;48.716;8.962;2022-12-10T01:21:08;95261.25;;;0.67;93.46
71105;BME280;58760;48.716;8.962;2022-12-10T01:23:35;95262.75;;;0.69;93.37
71105;BME280;58760;48.716;8.962;2022-12-10T01:26:03;95264.78;;;0.75;93.18
71105;BME280;58760;48.716;8.962;2022-12-10T01:28:31;95271.28;;;0.71;92.97
71105;BME280;58760;48.716;8.962;2022-12-10T01:31:03;95277.88;;;0.66;93.08
71105;BME280;58760;48.716;8.962;2022-12-10T01:33:29;95271.16;;;0.63;93.62
71105;BME280;58760;48.716;8.962;2022-12-10T01:35:56;95268.44;;;0.65;93.79
71105;BME280;58760;48.716;8.962;2022-12-10T01:38:21;95270.34;;;0.63;93.94
71105;BME280;58760;48.716;8.962;2022-12-10T01:40:47;95275.81;;;0.69;93.98
71105;BME280;58760;48.716;8.962;2022-12-10T01:43:14;95272.28;;;0.61;93.55
71105;BME280;58760;48.716;8.962;2022-12-10T01:45:39;95277.47;;;0.70;93.88
71105;BME280;58760;48.716;8.962;2022-12-10T01:48:05;95264.94;;;0.74;93.44
71105;BME280;58760;48.716;8.962;2022-12-10T01:50:30;95271.16;;;0.63;93.10
71105;BME280;58760;48.716;8.962;2022-12-10T01:52:55;95277.63;;;0.59;93.53
71105;BME280;58760;48.716;8.962;2022-12-10T01:55:49;95279.03;;;0.53;93.94
71105;BME280;58760;48.716;8.962;2022-12-10T01:58:16;95280.25;;;0.59;94.26
71105;BME280;58760;48.716;8.962;2022-12-10T02:01:11;95279.28;;;0.60;94.41
71105;BME280;58760;48.716;8.962;2022-12-10T02:03:42;95286.56;;;0.57;93.82
71105;BME280;58760;48.716;8.962;2022-12-10T02:09:27;95290.38;;;0.62;93.93
71105;BME280;58760;48.716;8.962;2022-12-10T02:12:11;95282.84;;;0.59;93.74
71105;BME280;58760;48.716;8.962;2022-12-10T02:15:15;95282.97;;;0.67;93.77
71105;BME280;58760;48.716;8.962;2022-12-10T02:17:54;95281.88;;;0.60;93.87
71105;BME280;58760;48.716;8.962;2022-12-10T02:23:29;95270.88;;;0.66;93.77
71105;BME280;58760;48.716;8.962;2022-12-10T02:26:12;95274.44;;;0.65;93.82
71105;BME280;58760;48.716;8.962;2022-12-10T02:31:06;95266.16;;;0.52;93.68
71105;BME280;58760;48.716;8.962;2022-12-10T02:33:39;95255.50;;;0.63;94.23
71105;BME280;58760;48.716;8.962;2022-12-10T02:36:09;95248.75;;;0.70;93.74
71105;BME280;58760;48.716;8.962;2022-12-10T02:38:37;95248.09;;;0.68;93.19
71105;BME280;58760;48.716;8.962;2022-12-10T02:41:09;95240.09;;;0.70;93.40
71105;BME280;58760;48.716;8.962;2022-12-10T02:43:39;95237.72;;;0.76;93.00
71105;BME280;58760;48.716;8.962;2022-12-10T02:46:05;95230.91;;;0.66;93.26
71105;BME280;58760;48.716;8.962;2022-12-10T02:48:32;95238.59;;;0.67;93.31
71105;BME280;58760;48.716;8.962;2022-12-10T02:50:59;95235.44;;;0.64;93.51
71105;BME280;58760;48.716;8.962;2022-12-10T02:53:24;95245.44;;;0.78;92.56
71105;BME280;58760;48.716;8.962;2022-12-10T02:58:35;95240.09;;;0.70;92.70
71105;BME280;58760;48.716;8.962;2022-12-10T03:01:20;95239.31;;;0.60;93.33
71105;BME280;58760;48.716;8.962;2022-12-10T03:04:07;95248.78;;;0.61;93.90
71105;BME280;58760;48.716;8.962;2022-12-10T03:06:42;95255.91;;;0.68;94.11
71105;BME280;58760;48.716;8.962;2022-12-10T03:09:12;95250.41;;;0.71;94.05
71105;BME280;58760;48.716;8.962;2022-12-10T03:11:43;95249.72;;;0.69;93.11
71105;BME280;58760;48.716;8.962;2022-12-10T03:14:16;95243.00;;;0.67;92.83
71105;BME280;58760;48.716;8.962;2022-12-10T03:16:49;95221.00;;;0.69;93.05
71105;BME280;58760;48.716;8.962;2022-12-10T03:19:18;95216.72;;;0.78;92.49
71105;BME280;58760;48.716;8.962;2022-12-10T03:21:47;95217.44;;;0.70;92.44
71105;BME280;58760;48.716;8.962;2022-12-10T03:24:16;95225.00;;;0.64;92.23
71105;BME280;58760;48.716;8.962;2022-12-10T03:26:45;95226.56;;;0.57;92.61
71105;BME280;58760;48.716;8.962;2022-12-10T03:29:20;95222.00;;;0.59;92.91
71105;BME280;58760;48.716;8.962;2022-12-10T03:31:47;95236.88;;;0.58;93.20
71105;BME280;58760;48.716;8.962;2022-12-10T03:34:14;95247.84;;;0.62;93.13
71105;BME280;58760;48.716;8.962;2022-12-10T03:36:40;95254.19;;;0.49;92.65
71105;BME280;58760;48.716;8.962;2022-12-10T03:39:07;95249.09;;;0.58;93.34
71105;BME280;58760;48.716;8.962;2022-12-10T03:41:33;95246.75;;;0.55;93.09
71105;BME280;58760;48.716;8.962;2022-12-10T03:43:59;95260.63;;;0.55;93.24
71105;BME280;58760;48.716;8.962;2022-12-10T03:46:28;95259.41;;;0.49;93.24
71105;BME280;58760;48.716;8.962;2022-12-10T03:48:54;95263.09;;;0.57;93.14
71105;BME280;58760;48.716;8.962;2022-12-10T03:51:20;95265.28;;;0.61;93.21
71105;BME280;58760;48.716;8.962;2022-12-10T03:53:46;95256.75;;;0.59;92.64
71105;BME280;58760;48.716;8.962;2022-12-10T03:56:14;95256.09;;;0.57;92.86
71105;BME280;58760;48.716;8.962;2022-12-10T03:58:39;95256.66;;;0.51;92.83
71105;BME280;58760;48.716;8.962;2022-12-10T04:01:05;95254.72;;;0.53;93.20
71105;BME280;58760;48.716;8.962;2022-12-10T04:03:35;95264.19;;;0.54;93.19
71105;BME280;58760;48.716;8.962;2022-12-10T04:06:02;95273.09;;;0.61;93.26
71105;BME280;58760;48.716;8.962;2022-12-10T04:08:28;95271.84;;;0.65;92.90
71105;BME280;58760;48.716;8.962;2022-12-10T04:10:53;95267.34;;;0.58;93.13
71105;BME280;58760;48.716;8.962;2022-12-10T04:13:18;95273.81;;;0.53;93.23
71105;BME280;58760;48.716;8.962;2022-12-10T04:16:02;95275.31;;;0.56;92.87
71105;BME280;58760;48.716;8.962;2022-12-10T04:18:46;95283.84;;;0.58;92.48
71105;BME280;58760;48.716;8.962;2022-12-10T04:21:11;95279.41;;;0.59;92.79
71105;BME280;58760;48.716;8.962;2022-12-10T04:23:55;95289.44;;;0.63;92.68
71105;BME280;58760;48.716;8.962;2022-12-10T04:26:39;95277.38;;;0.52;92.54
71105;BME280;58760;48.716;8.962;2022-12-10T04:29:25;95287.56;;;0.46;92.82
71105;BME280;58760;48.716;8.962;2022-12-10T04:31:51;95287.56;;;0.46;93.18
71105;BME280;58760;48.716;8.962;2022-12-10T04:34:17;95291.56;;;0.40;93.51
71105;BME280;58760;48.716;8.962;2022-12-10T04:36:42;95287.31;;;0.39;93.51
71105;BME280;58760;48.716;8.962;2022-12-10T04:39:08;95280.03;;;0.43;93.74
71105;BME280;58760;48.716;8.962;2022-12-10T04:41:33;95281.66;;;0.44;93.36
71105;BME280;58760;48.716;8.962;2022-12-10T04:43:59;95282.63;;;0.43;93.27
71105;BME280;58760;48.716;8.962;2022-12-10T04:46:24;95280.19;;;0.41;93.40
71105;BME280;58760;48.716;8.962;2022-12-10T04:48:49;95296.53;;;0.34;93.60
71105;BME280;58760;48.716;8.962;2022-12-10T04:51:15;95291.28;;;0.43;93.61
71105;BME280;58760;48.716;8.962;2022-12-10T04:53:40;95291.03;;;0.37;93.38
71105;BME280;58760;48.716;8.962;2022-12-10T04:56:06;95295.69;;;0.33;93.23
71105;BME280;58760;48.716;8.962;2022-12-10T04:58:32;95281.44;;;0.28;93.58
71105;BME280;58760;48.716;8.962;2022-12-10T05:01:05;95282.94;;;0.30;94.13
71105;BME280;58760;48.716;8.962;2022-12-10T05:03:31;95277.59;;;0.32;94.33
71105;BME280;58760;48.716;8.962;2022-12-10T05:06:01;95279.91;;;0.35;94.10
71105;BME280;58760;48.716;8.962;2022-12-10T05:08:27;95274.81;;;0.43;94.19
71105;BME280;58760;48.716;8.962;2022-12-10T05:10:52;95278.94;;;0.36;93.76
71105;BME280;58760;48.716;8.962;2022-12-10T05:13:17;95286.50;;;0.39;93.74
71105;BME280;58760;48.716;8.962;2022-12-10T05:15:43;95283.91;;;0.39;94.02
71105;BME280;58760;48.716;8.962;2022-12-10T05:18:08;95282.00;;;0.31;93.95
71105;BME280;58760;48.716;8.962;2022-12-10T05:20:33;95280.72;;;0.45;94.02
71105;BME280;58760;48.716;8.962;2022-12-10T05:22:59;95275.91;;;0.40;93.49
71105;BME280;58760;48.716;8.962;2022-12-10T05:25:42;95290.19;;;0.36;93.37
71105;BME280;58760;48.716;8.962;2022-12-10T05:28:22;95287.47;;;0.38;93.83
71105;BME280;58760;48.716;8.962;2022-12-10T05:30:48;95284.44;;;0.33;93.74
71105;BME280;58760;48.716;8.962;2022-12-10T05:33:14;95279.47;;;0.39;93.67
71105;BME280;58760;48.716;8.962;2022-12-10T05:35:39;95287.31;;;0.39;93.24
71105;BME280;58760;48.716;8.962;2022-12-10T05:38:05;95285.53;;;0.40;93.49
71105;BME280;58760;48.716;8.962;2022-12-10T05:40:34;95292.97;;;0.35;93.37
71105;BME280;58760;48.716;8.962;2022-12-10T05:42:59;95290.44;;;0.43;93.48
71105;BME280;58760;48.716;8.962;2022-12-10T05:45:24;95285.81;;;0.37;93.44
71105;BME280;58760;48.716;8.962;2022-12-10T05:47:50;95288.31;;;0.29;93.45
71105;BME280;58760;48.716;8.962;2022-12-10T05:50:15;95288.84;;;0.32;93.40
71105;BME280;58760;48.716;8.962;2022-12-10T05:52:40;95290.78;;;0.30;93.29
71105;BME280;58760;48.716;8.962;2022-12-10T05:55:06;95297.50;;;0.23;93.22
71105;BME280;58760;48.716;8.962;2022-12-10T05:57:31;95299.31;;;0.23;93.68
71105;BME280;58760;48.716;8.962;2022-12-10T05:59:57;95299.03;;;0.26;93.30
71105;BME280;58760;48.716;8.962;2022-12-10T06:02:22;95302.03;;;0.31;93.14
71105;BME280;58760;48.716;8.962;2022-12-10T06:04:47;95301.75;;;0.24;92.86
71105;BME280;58760;48.716;8.962;2022-12-10T06:07:13;95303.28;;;0.17;93.30
71105;BME280;58760;48.716;8.962;2022-12-10T06:09:38;95296.97;;;0.10;93.42
71105;BME280;58760;48.716;8.962;2022-12-10T06:12:04;95315.50;;;0.07;93.79
71105;BME280;58760;48.716;8.962;2022-12-10T06:14:29;95312.50;;;0.02;93.86
71105;BME280;58760;48.716;8.962;2022-12-10T06:16:54;95309.06;;;0.02;94.03
71105;BME280;58760;48.716;8.962;2022-12-10T06:19:20;95310.44;;;0.06;93.95
71105;BME280;58760;48.716;8.962;2022-12-10T06:21:45;95320.06;;;0.05;93.58
71105;BME280;58760;48.716;8.962;2022-12-10T06:24:10;95319.91;;;0.07;93.69
71105;BME280;58760;48.716;8.962;2022-12-10T06:26:36;95322.50;;;-0.03;93.51
71105;BME280;58760;48.716;8.962;2022-12-10T06:29:01;95328.16;;;0.02;93.86
71105;BME280;58760;48.716;8.962;2022-12-10T06:31:27;95329.81;;;0.03;93.55
71105;BME280;58760;48.716;8.962;2022-12-10T06:33:52;95337.75;;;0.02;93.71
71105;BME280;58760;48.716;8.962;2022-12-10T06:36:19;95341.75;;;-0.04;93.47
71105;BME280;58760;48.716;8.962;2022-12-10T06:38:45;95345.56;;;0.02;93.76
71105;BME280;58760;48.716;8.962;2022-12-10T06:41:13;95349.00;;;0.02;93.17
71105;BME280;58760;48.716;8.962;2022-12-10T06:43:38;95356.69;;;0.04;93.44
71105;BME280;58760;48.716;8.962;2022-12-10T06:46:09;95356.97;;;0.00;93.12
71105;BME280;58760;48.716;8.962;2022-12-10T06:48:35;95365.06;;;-0.03;93.20
71105;BME280;58760;48.716;8.962;2022-12-10T06:51:01;95366.59;;;0.00;93.79
71105;BME280;58760;48.716;8.962;2022-12-10T06:53:26;95361.22;;;0.02;93.46
71105;BME280;58760;48.716;8.962;2022-12-10T06:55:52;95364.94;;;-0.01;93.60
71105;BME280;58760;48.716;8.962;2022-12-10T06:58:17;95359.16;;;-0.05;93.72
71105;BME280;58760;48.716;8.962;2022-12-10T07:00:42;95357.22;;;-0.03;93.61
71105;BME280;58760;48.716;8.962;2022-12-10T07:03:08;95360.00;;;-0.14;93.66
71105;BME280;58760;48.716;8.962;2022-12-10T07:05:33;95359.44;;;-0.17;94.26
71105;BME280;58760;48.716;8.962;2022-12-10T07:07:58;95362.16;;;-0.19;94.44
71105;BME280;58760;48.716;8.962;2022-12-10T07:10:24;95358.34;;;-0.15;94.59
71105;BME280;58760;48.716;8.962;2022-12-10T07:12:49;95361.91;;;-0.16;94.12
71105;BME280;58760;48.716;8.962;2022-12-10T07:15:15;95363.81;;;-0.18;94.63
71105;BME280;58760;48.716;8.962;2022-12-10T07:17:40;95372.31;;;-0.16;94.42
71105;BME280;58760;48.716;8.962;2022-12-10T07:20:06;95361.22;;;-0.18;94.31
71105;BME280;58760;48.716;8.962;2022-12-10T07:22:32;95370.16;;;-0.11;94.58
71105;BME280;58760;48.716;8.962;2022-12-10T07:24:57;95379.75;;;-0.11;94.12
71105;BME280;58760;48.716;8.962;2022-12-10T07:27:23;95380.28;;;-0.08;94.15
71105;BME280;58760;48.716;8.962;2022-12-10T07:29:48;95386.34;;;0.03;93.85
71105;BME280;58760;48.716;8.962;2022-12-10T07:32:13;95381.69;;;-0.04;93.48
71105;BME280;58760;48.716;8.962;2022-12-10T07:34:39;95380.97;;;-0.06;93.98
71105;BME280;58760;48.716;8.962;2022-12-10T07:37:04;95384.13;;;-0.02;93.85
71105;BME280;58760;48.716;8.962;2022-12-10T07:39:30;95381.53;;;-0.02;93.26
71105;BME280;58760;48.716;8.962;2022-12-10T07:41:55;95384.13;;;-0.02;93.66
71105;BME280;58760;48.716;8.962;2022-12-10T07:44:23;95389.78;;;0.03;93.07
71105;BME280;58760;48.716;8.962;2022-12-10T07:46:50;95399.38;;;0.03;93.00
71105;BME280;58760;48.716;8.962;2022-12-10T07:49:17;95403.34;;;0.07;93.22
71105;BME280;58760;48.716;8.962;2022-12-10T07:51:47;95405.25;;;0.05;92.93
71105;BME280;58760;48.716;8.962;2022-12-10T07:54:14;95406.91;;;0.06;93.12
71105;BME280;58760;48.716;8.962;2022-12-10T07:56:39;95402.81;;;0.03;92.70
71105;BME280;58760;48.716;8.962;2022-12-10T07:59:04;95409.66;;;0.04;93.02
71105;BME280;58760;48.716;8.962;2022-12-10T08:01:30;95403.34;;;0.07;93.04
71105;BME280;58760;48.716;8.962;2022-12-10T08:03:56;95409.81;;;0.12;93.01
71105;BME280;58760;48.716;8.962;2022-12-10T08:06:22;95407.19;;;0.12;92.79
71105;BME280;58760;48.716;8.962;2022-12-10T08:08:48;95410.47;;;0.14;92.77
71105;BME280;58760;48.716;8.962;2022-12-10T08:11:16;95410.75;;;0.11;92.20
71105;BME280;58760;48.716;8.962;2022-12-10T08:13:42;95394.84;;;0.14;92.24
71105;BME280;58760;48.716;8.962;2022-12-10T08:16:11;95403.59;;;0.13;92.14
71105;BME280;58760;48.716;8.962;2022-12-10T08:18:37;95393.19;;;0.04;92.19
71105;BME280;58760;48.716;8.962;2022-12-10T08:21:07;95394.84;;;0.05;92.36
71105;BME280;58760;48.716;8.962;2022-12-10T08:23:33;95405.53;;;0.11;92.46
71105;BME280;58760;48.716;8.962;2022-12-10T08:26:03;95405.00;;;0.17;92.36
71105;BME280;58760;48.716;8.962;2022-12-10T08:28:28;95403.75;;;0.21;92.12
71105;BME280;58760;48.716;8.962;2022-12-10T08:30:53;95400.59;;;0.18;91.66
71105;BME280;58760;48.716;8.962;2022-12-10T08:33:19;95401.00;;;0.13;91.71
71105;BME280;58760;48.716;8.962;2022-12-10T08:35:44;95414.19;;;0.12;91.62
71105;BME280;58760;48.716;8.962;2022-12-10T08:38:09;95421.34;;;0.10;91.69
71105;BME280;58760;48.716;8.962;2022-12-10T08:40:39;95436.16;;;0.09;91.46
71105;BME280;58760;48.716;8.962;2022-12-10T08:43:04;95431.63;;;0.11;91.89
71105;BME280;58760;48.716;8.962;2022-12-10T08:45:29;95433.00;;;0.15;91.98
71105;BME280;58760;48.716;8.962;2022-12-10T08:47:55;95425.72;;;0.19;91.44
71105;BME280;58760;48.716;8.962;2022-12-10T08:50:20;95429.56;;;0.24;91.07
71105;BME280;58760;48.716;8.962;2022-12-10T08:52:45;95429.72;;;0.23;91.44
71105;BME280;58760;48.716;8.962;2022-12-10T08:55:11;95439.88;;;0.26;90.55
71105;BME280;58760;48.716;8.962;2022-12-10T08:57:36;95429.44;;;0.26;90.58
71105;BME280;58760;48.716;8.962;2022-12-10T09:00:02;95431.50;;;0.32;90.18
71105;BME280;58760;48.716;8.962;2022-12-10T09:02:28;95437.53;;;0.32;90.10
71105;BME280;58760;48.716;8.962;2022-12-10T09:04:53;95437.94;;;0.37;89.83
71105;BME280;58760;48.716;8.962;2022-12-10T09:07:19;95445.66;;;0.39;89.69
71105;BME280;58760;48.716;8.962;2022-12-10T09:09:44;95447.00;;;0.43;89.69
71105;BME280;58760;48.716;8.962;2022-12-10T09:12:09;95453.59;;;0.47;88.91
71105;BME280;58760;48.716;8.962;2022-12-10T09:14:35;95449.59;;;0.43;89.44
71105;BME280;58760;48.716;8.962;2022-12-10T09:17:03;95469.53;;;0.34;88.78
71105;BME280;58760;48.716;8.962;2022-12-10T09:19:29;95467.75;;;0.35;89.20
71105;BME280;58760;48.716;8.962;2022-12-10T09:21:54;95471.97;;;0.36;89.50
71105;BME280;58760;48.716;8.962;2022-12-10T09:24:19;95469.66;;;0.42;89.28
71105;BME280;58760;48.716;8.962;2022-12-10T09:26:45;95471.19;;;0.45;89.05
71105;BME280;58760;48.716;8.962;2022-12-10T09:29:12;95468.84;;;0.51;89.09
71105;BME280;58760;48.716;8.962;2022-12-10T09:31:38;95471.44;;;0.51;88.56
71105;BME280;58760;48.716;8.962;2022-12-10T09:34:03;95470.34;;;0.54;88.49
71105;BME280;58760;48.716;8.962;2022-12-10T09:36:29;95480.09;;;0.52;88.28
71105;BME280;58760;48.716;8.962;2022-12-10T09:38:54;95476.50;;;0.53;88.29
71105;BME280;58760;48.716;8.962;2022-12-10T09:44:28;95477.22;;;0.55;87.98
71105;BME280;58760;48.716;8.962;2022-12-10T09:46:59;95474.19;;;0.60;88.70
71105;BME280;58760;48.716;8.962;2022-12-10T09:52:21;95473.91;;;0.53;88.21
71105;BME280;58760;48.716;8.962;2022-12-10T09:54:56;95474.72;;;0.53;88.18
71105;BME280;58760;48.716;8.962;2022-12-10T09:57:26;95473.91;;;0.63;88.61
71105;BME280;58760;48.716;8.962;2022-12-10T09:59:54;95486.69;;;0.56;88.12
71105;BME280;58760;48.716;8.962;2022-12-10T10:02:26;95477.50;;;0.52;88.28
71105;BME280;58760;48.716;8.962;2022-12-10T10:05:00;95473.91;;;0.53;88.29
71105;BME280;58760;48.716;8.962;2022-12-10T10:07:28;95476.25;;;0.56;87.65
71105;BME280;58760;48.716;8.962;2022-12-10T10:10:00;95470.75;;;0.59;88.28
71105;BME280;58760;48.716;8.962;2022-12-10T10:12:31;95471.44;;;0.71;87.91
71105;BME280;58760;48.716;8.962;2022-12-10T10:14:57;95476.94;;;0.68;87.24
71105;BME280;58760;48.716;8.962;2022-12-10T10:17:33;95470.19;;;0.65;86.98
71105;BME280;58760;48.716;8.962;2022-12-10T10:20:00;95482.00;;;0.69;87.01
71105;BME280;58760;48.716;8.962;2022-12-10T10:22:26;95478.00;;;0.65;86.13
71105;BME280;58760;48.716;8.962;2022-12-10T10:24:51;95477.75;;;0.68;86.48
71105;BME280;58760;48.716;8.962;2022-12-10T10:27:20;95477.06;;;0.66;86.49
71105;BME280;58760;48.716;8.962;2022-12-10T10:29:52;95477.75;;;0.68;86.44
71105;BME280;58760;48.716;8.962;2022-12-10T10:32:22;95475.00;;;0.70;86.34
71105;BME280;58760;48.716;8.962;2022-12-10T10:34:56;95471.56;;;0.69;86.16
71105;BME280;58760;48.716;8.962;2022-12-10T10:37:28;95467.84;;;0.81;85.85
71105;BME280;58760;48.716;8.962;2022-12-10T10:39:54;95469.34;;;0.93;86.01
71105;BME280;58760;48.716;8.962;2022-12-10T10:42:38;95475.94;;;0.97;85.31
71105;BME280;58760;48.716;8.962;2022-12-10T10:45:29;95484.16;;;1.02;85.24
71105;BME280;58760;48.716;8.962;2022-12-10T10:50:29;95482.91;;;1.07;85.45
71105;BME280;58760;48.716;8.962;2022-12-10T10:52:54;95485.91;;;1.12;85.00
71105;BME280;58760;48.716;8.962;2022-12-10T10:55:33;95482.59;;;1.29;84.36
71105;BME280;58760;48.716;8.962;2022-12-10T10:58:00;95487.56;;;1.22;84.00
71105;BME280;58760;48.716;8.962;2022-12-10T11:00:26;95483.16;;;1.23;83.91
71105;BME280;58760;48.716;8.962;2022-12-10T11:02:52;95486.41;;;1.34;84.09
71105;BME280;58760;48.716;8.962;2022-12-10T11:05:22;95492.47;;;1.35;83.48
71105;BME280;58760;48.716;8.962;2022-12-10T11:07:57;95489.84;;;1.35;83.48
71105;BME280;58760;48.716;8.962;2022-12-10T11:10:24;95495.22;;;1.33;83.58
71105;BME280;58760;48.716;8.962;2022-12-10T11:12:58;95496.28;;;1.40;82.47
71105;BME280;58760;48.716;8.962;2022-12-10T11:15:40;95485.16;;;1.38;82.77
71105;BME280;58760;48.716;8.962;2022-12-10T11:18:23;95492.59;;;1.43;83.43
71105;BME280;58760;48.716;8.962;2022-12-10T11:23:38;95489.84;;;1.35;83.23
71105;BME280;58760;48.716;8.962;2022-12-10T11:37:03;95496.78;;;1.53;81.61
71105;BME280;58760;48.716;8.962;2022-12-10T11:40:00;95490.44;;;1.66;81.46
71105;BME280;58760;48.716;8.962;2022-12-10T11:42:53;95484.66;;;1.62;81.57
71105;BME280;58760;48.716;8.962;2022-12-10T11:45:30;95484.50;;;1.64;81.86
71105;BME280;58760;48.716;8.962;2022-12-10T11:51:28;95486.00;;;1.66;81.92
71105;BME280;58760;48.716;8.962;2022-12-10T11:56:43;95480.25;;;1.90;80.73
71105;BME280;58760;48.716;8.962;2022-12-10T11:59:27;95472.66;;;1.96;80.36
71105;BME280;58760;48.716;8.962;2022-12-10T12:07:45;95500.59;;;1.69;80.14
71105;BME280;58760;48.716;8.962;2022-12-10T12:13:28;95496.34;;;1.68;81.01
71105;BME280;58760;48.716;8.962;2022-12-10T12:16:01;95514.22;;;1.72;80.73
71105;BME280;58760;48.716;8.962;2022-12-10T12:21:12;95514.22;;;1.72;80.29
71105;BME280;58760;48.716;8.962;2022-12-10T12:23:58;95513.22;;;1.73;80.12
71105;BME280;58760;48.716;8.962;2022-12-10T12:26:32;95512.72;;;1.60;79.56
71105;BME280;58760;48.716;8.962;2022-12-10T12:31:54;95520.28;;;1.63;80.01
71105;BME280;58760;48.716;8.962;2022-12-10T12:34:49;95521.66;;;1.67;79.38
71105;BME280;58760;48.716;8.962;2022-12-10T12:37:17;95515.47;;;1.68;79.58
71105;BME280;58760;48.716;8.962;2022-12-10T12:39:54;95513.22;;;1.73;78.23
71105;BME280;58760;48.716;8.962;2022-12-10T12:42:36;95523.84;;;1.72;78.18
71105;BME280;58760;48.716;8.962;2022-12-10T12:45:10;95532.22;;;1.75;78.45
71105;BME280;58760;48.716;8.962;2022-12-10T12:47:46;95532.22;;;1.75;78.28
71105;BME280;58760;48.716;8.962;2022-12-10T12:50:41;95536.63;;;1.75;77.82
71105;BME280;58760;48.716;8.962;2022-12-10T12:53:11;95535.16;;;1.63;78.83
71105;BME280;58760;48.716;8.962;2022-12-10T13:00:51;95539.03;;;1.58;79.55
71105;BME280;58760;48.716;8.962;2022-12-10T13:03:41;95544.66;;;1.54;80.04
71105;BME280;58760;48.716;8.962;2022-12-10T13:06:28;95551.88;;;1.42;80.49
71105;BME280;58760;48.716;8.962;2022-12-10T13:11:35;95553.00;;;1.21;80.26
71105;BME280;58760;48.716;8.962;2022-12-10T13:19:33;95555.47;;;1.32;79.63
71105;BME280;58760;48.716;8.962;2022-12-10T13:22:12;95552.47;;;1.27;79.88
71105;BME280;58760;48.716;8.962;2022-12-10T13:32:21;95569.09;;;1.26;80.47
71105;BME280;58760;48.716;8.962;2022-12-10T13:35:15;95570.03;;;1.25;80.56
71105;BME280;58760;48.716;8.962;2022-12-10T13:46:30;95594.81;;;0.82;82.10
71105;BME280;58760;48.716;8.962;2022-12-10T13:49:04;95589.72;;;0.71;82.95
71105;BME280;58760;48.716;8.962;2022-12-10T13:54:48;95606.06;;;0.73;84.11
71105;BME280;58760;48.716;8.962;2022-12-10T13:57:37;95611.84;;;0.77;82.56
71105;BME280;58760;48.716;8.962;2022-12-10T14:00:21;95613.06;;;0.73;81.91
71105;BME280;58760;48.716;8.962;2022-12-10T14:03:14;95616.50;;;0.73;83.40
71105;BME280;58760;48.716;8.962;2022-12-10T14:08:25;95617.34;;;0.74;83.35
71105;BME280;58760;48.716;8.962;2022-12-10T14:10:53;95616.78;;;0.80;83.32
71105;BME280;58760;48.716;8.962;2022-12-10T14:13:21;95624.75;;;0.78;82.58
71105;BME280;58760;48.716;8.962;2022-12-10T14:15:53;95622.00;;;0.80;82.52
71105;BME280;58760;48.716;8.962;2022-12-10T14:18:20;95634.22;;;0.79;82.31
71105;BME280;58760;48.716;8.962;2022-12-10T14:20:50;95634.22;;;0.79;82.15
71105;BME280;58760;48.716;8.962;2022-12-10T14:23:23;95632.19;;;0.83;81.73
71105;BME280;58760;48.716;8.962;2022-12-10T14:26:10;95637.78;;;0.78;81.52
71105;BME280;58760;48.716;8.962;2022-12-10T14:28:39;95632.97;;;0.64;81.38
71105;BME280;58760;48.716;8.962;2022-12-10T14:31:06;95640.66;;;0.56;82.29
71105;BME280;58760;48.716;8.962;2022-12-10T14:33:35;95640.25;;;0.51;81.85
71105;BME280;58760;48.716;8.962;2022-12-10T14:36:01;95639.78;;;0.46;82.29
71105;BME280;58760;48.716;8.962;2022-12-10T14:38:30;95640.88;;;0.43;82.60
71105;BME280;58760;48.716;8.962;2022-12-10T14:40:58;95642.28;;;0.47;82.57
71105;BME280;58760;48.716;8.962;2022-12-10T14:43:36;95646.84;;;0.55;81.83
71105;BME280;58760;48.716;8.962;2022-12-10T14:46:04;95653.97;;;0.53;81.96
71105;BME280;58760;48.716;8.962;2022-12-10T14:48:29;95653.00;;;0.54;82.27
71105;BME280;58760;48.716;8.962;2022-12-10T14:51:03;95658.22;;;0.54;81.84
71105;BME280;58760;48.716;8.962;2022-12-10T14:53:29;95658.31;;;0.43;81.75
71105;BME280;58760;48.716;8.962;2022-12-10T14:56:02;95654.75;;;0.34;82.25
71105;BME280;58760;48.716;8.962;2022-12-10T14:58:38;95659.28;;;0.32;82.51